Time;durP1;ratioP1;P1;durP2;ratioP2;P2;SDS_P1;SDS_P2;PMS_P1;PMS_P2;Temp;Humidity;BMP_temperature;BMP_pressure;BME280_temperature;BME280_humidity;BME280_pressure;Samples;Min_cycle;Max_cycle;Signal;HPM_P1;HPM_P2
2022/08/27 00:01:20;;;;;;;90.50;57.00;;;;;;;20.05;54.34;100515.75;5074038;28;20106;-81
2022/08/27 00:03:48;;;;;;;89.60;54.20;;;;;;;20.05;54.47;100534.31;5073306;28;20110;-81
2022/08/27 00:06:20;;;;;;;83.50;52.78;;;;;;;20.04;54.63;100521.09;5074278;28;20147;-81
2022/08/27 00:08:47;;;;;;;81.40;51.85;;;;;;;19.96;54.70;100518.66;5074401;28;20057;-80
2022/08/27 00:11:16;;;;;;;96.72;61.80;;;;;;;19.96;54.32;100529.25;5074607;28;20040;-82
2022/08/27 00:13:45;;;;;;;79.05;53.17;;;;;;;19.94;54.58;100524.88;5074210;28;20475;-80
2022/08/27 00:16:14;;;;;;;89.78;54.78;;;;;;;19.84;54.92;100518.94;5056274;28;20052;-82
2022/08/27 00:18:44;;;;;;;90.80;53.28;;;;;;;19.87;55.17;100518.00;5074210;28;20094;-83
2022/08/27 00:21:15;;;;;;;80.68;53.17;;;;;;;19.73;55.35;100515.69;5086510;28;20048;-79
2022/08/27 00:23:42;;;;;;;79.40;52.25;;;;;;;19.81;55.47;100527.84;5095374;28;20572;-82
2022/08/27 00:26:10;;;;;;;84.07;54.28;;;;;;;19.80;55.41;100531.41;5100939;28;20517;-82
2022/08/27 00:28:38;;;;;;;99.70;62.45;;;;;;;19.64;55.46;100501.72;5087143;28;20070;-81
2022/08/27 00:31:05;;;;;;;84.93;54.50;;;;;;;19.72;55.44;100519.22;5104437;28;20056;-83
2022/08/27 00:33:32;;;;;;;80.50;52.33;;;;;;;19.73;55.66;100534.25;5097269;28;20052;-82
2022/08/27 00:36:00;;;;;;;81.40;52.30;;;;;;;19.74;55.68;100523.59;5075970;28;20461;-81
2022/08/27 00:38:28;;;;;;;80.07;52.35;;;;;;;19.61;55.86;100506.19;5093823;28;20052;-83
2022/08/27 00:40:55;;;;;;;81.78;52.55;;;;;;;19.57;55.87;100520.44;5093642;28;20469;-83
2022/08/27 00:43:29;;;;;;;77.32;50.05;;;;;;;19.61;56.10;100519.44;5094078;28;20080;-81
2022/08/27 00:46:10;;;;;;;75.28;49.45;;;;;;;19.61;55.95;100540.66;5094170;28;20080;-81
2022/08/27 00:48:37;;;;;;;74.15;47.45;;;;;;;19.41;56.14;100510.19;5093498;28;20150;-82
2022/08/27 00:51:05;;;;;;;73.68;47.30;;;;;;;19.26;56.18;100484.06;5092572;28;20500;-80
2022/08/27 00:53:34;;;;;;;82.38;48.53;;;;;;;19.30;56.22;100492.81;5093092;28;20048;-82
2022/08/27 00:56:11;;;;;;;74.68;48.47;;;;;;;19.24;56.45;100499.09;5092851;28;20054;-82
2022/08/27 00:58:44;;;;;;;77.10;48.92;;;;;;;19.40;56.51;100529.66;5093056;28;20410;-80
2022/08/27 01:01:15;;;;;;;78.57;49.55;;;;;;;19.43;56.69;100537.53;5077235;28;20056;-80
2022/08/27 01:03:46;;;;;;;78.10;49.60;;;;;;;19.33;56.54;100521.88;5096516;28;20147;-80
2022/08/27 01:06:15;;;;;;;78.13;49.42;;;;;;;19.37;56.66;100527.06;5096466;28;20048;-80
2022/08/27 01:08:49;;;;;;;80.57;49.85;;;;;;;19.24;56.95;100515.00;5096833;28;20138;-80
2022/08/27 01:11:17;;;;;;;81.05;51.50;;;;;;;19.23;56.93;100514.13;5096383;28;20097;-80
2022/08/27 01:13:44;;;;;;;122.22;75.22;;;;;;;19.31;56.54;100526.31;5096621;28;20055;-80
2022/08/27 01:16:34;;;;;;;145.05;95.28;;;;;;;19.38;55.75;100531.47;5078732;28;20143;-80
2022/08/27 01:19:13;;;;;;;141.82;92.50;;;;;;;19.39;55.49;100519.09;5096438;28;20048;-80
2022/08/27 01:21:50;;;;;;;134.45;84.10;;;;;;;19.59;55.69;100534.50;5096656;28;20052;-79
2022/08/27 01:24:34;;;;;;;173.77;107.18;;;;;;;19.58;55.19;100532.78;5096379;28;20052;-81
2022/08/27 01:27:05;;;;;;;151.95;98.10;;;;;;;19.56;55.23;100526.66;5096662;28;20454;-80
2022/08/27 01:29:40;;;;;;;172.98;113.13;;;;;;;19.62;54.75;100529.16;5096693;28;20137;-81
2022/08/27 01:32:09;;;;;;;154.45;93.15;;;;;;;19.55;55.00;100527.53;5096277;28;20044;-80
2022/08/27 01:34:37;;;;;;;120.05;75.18;;;;;;;19.57;55.30;100526.59;5096419;28;20048;-81
2022/08/27 01:37:05;;;;;;;176.57;110.65;;;;;;;19.60;54.95;100538.94;5095831;28;20425;-81
2022/08/27 01:39:38;;;;;;;187.52;120.40;;;;;;;19.60;54.91;100544.22;5078035;28;20048;-82
2022/08/27 01:42:23;;;;;;;198.63;126.03;;;;;;;19.43;54.62;100534.00;5061557;28;20094;-80
2022/08/27 01:44:57;;;;;;;187.15;120.63;;;;;;;19.28;54.83;100505.22;5096548;28;20063;-81
2022/08/27 01:47:26;;;;;;;192.35;122.07;;;;;;;19.23;54.89;100498.25;5096896;28;20507;-83
2022/08/27 01:49:58;;;;;;;185.73;115.90;;;;;;;19.47;55.00;100554.22;5079140;28;20058;-81
2022/08/27 01:52:29;;;;;;;135.18;84.25;;;;;;;19.39;55.46;100548.22;5082342;28;20048;-78
2022/08/27 01:54:57;;;;;;;167.02;107.78;;;;;;;19.44;55.15;100559.56;5105516;28;20143;-80
2022/08/27 01:57:25;;;;;;;187.40;114.65;;;;;;;19.44;55.07;100559.56;5097056;28;20060;-81
2022/08/27 01:59:55;;;;;;;175.20;109.50;;;;;;;19.39;55.15;100564.97;5077977;28;20451;-82
2022/08/27 02:02:22;;;;;;;182.25;117.13;;;;;;;19.23;55.14;100548.56;5095564;28;20056;-80
2022/08/27 02:04:50;;;;;;;177.93;112.00;;;;;;;19.32;55.20;100536.91;5095415;28;20051;-80
2022/08/27 02:07:18;;;;;;;190.60;118.25;;;;;;;19.40;54.99;100555.25;5095419;28;20077;-81
2022/08/27 02:09:45;;;;;;;200.25;126.28;;;;;;;19.26;54.86;100525.56;5095437;28;20086;-80
2022/08/27 02:12:12;;;;;;;196.18;127.55;;;;;;;19.47;55.13;100566.59;5094460;28;20060;-80
2022/08/27 02:14:39;;;;;;;189.07;118.90;;;;;;;19.44;55.04;100557.81;5095574;28;20058;-81
2022/08/27 02:17:06;;;;;;;204.93;128.30;;;;;;;19.26;54.99;100513.19;5096090;28;20101;-80
2022/08/27 02:19:33;;;;;;;212.10;133.43;;;;;;;19.50;54.70;100556.78;5095644;28;20210;-81
2022/08/27 02:22:00;;;;;;;210.90;132.63;;;;;;;19.47;54.82;100555.97;5095534;28;20055;-81
2022/08/27 02:24:28;;;;;;;175.25;110.90;;;;;;;19.48;55.06;100566.56;5095368;28;20055;-81
2022/08/27 02:26:55;;;;;;;214.38;134.80;;;;;;;19.51;55.07;100562.97;5095210;28;20052;-81
2022/08/27 02:29:24;;;;;;;231.82;149.30;;;;;;;19.46;54.70;100552.47;5095269;28;20055;-81
2022/08/27 02:31:51;;;;;;;229.30;144.40;;;;;;;19.43;54.55;100556.06;5095280;28;20052;-80
2022/08/27 02:34:18;;;;;;;232.43;143.90;;;;;;;19.24;54.61;100523.81;5094850;28;20086;-81
2022/08/27 02:36:46;;;;;;;239.00;147.10;;;;;;;19.29;54.63;100534.28;5095164;28;20062;-81
2022/08/27 02:39:13;;;;;;;234.98;145.43;;;;;;;19.47;54.58;100559.53;5095477;28;20143;-80
2022/08/27 02:41:40;;;;;;;224.10;140.88;;;;;;;19.27;54.71;100537.88;5094861;28;20535;-81
2022/08/27 02:44:07;;;;;;;224.82;139.88;;;;;;;19.20;54.71;100518.63;5094949;28;20063;-80
2022/08/27 02:46:40;;;;;;;226.65;142.07;;;;;;;19.43;54.54;100566.66;5095743;28;20059;-80
2022/08/27 02:49:08;;;;;;;225.02;139.68;;;;;;;19.52;54.63;100560.28;5077785;28;20051;-81
2022/08/27 02:51:36;;;;;;;223.70;142.50;;;;;;;19.46;54.67;100555.13;5095852;28;20085;-82
2022/08/27 02:54:04;;;;;;;225.15;142.82;;;;;;;19.60;54.60;100570.72;5094841;28;20113;-80
2022/08/27 02:56:36;;;;;;;224.55;138.50;;;;;;;19.56;54.34;100563.75;5095024;28;20044;-80
2022/08/27 02:59:04;;;;;;;216.32;137.10;;;;;;;19.47;54.30;100538.34;5094593;28;20052;-80
2022/08/27 03:01:31;;;;;;;219.30;136.70;;;;;;;19.51;54.02;100547.06;5095838;28;20048;-80
2022/08/27 03:03:59;;;;;;;218.43;135.60;;;;;;;19.69;54.12;100559.91;5099195;28;20058;-80
2022/08/27 03:06:27;;;;;;;212.23;137.45;;;;;;;19.84;53.82;100574.63;5085805;28;20048;-81
2022/08/27 03:08:54;;;;;;;217.02;135.90;;;;;;;19.73;53.78;100543.06;5104260;28;20060;-78
2022/08/27 03:11:22;;;;;;;206.05;129.35;;;;;;;19.93;53.59;100578.81;5102286;28;20093;-81
2022/08/27 03:13:50;;;;;;;195.77;122.57;;;;;;;19.95;53.66;100583.19;5095100;28;20508;-80
2022/08/27 03:16:18;;;;;;;190.45;123.88;;;;;;;19.95;53.57;100585.84;5094239;28;20143;-81
2022/08/27 03:18:46;;;;;;;192.63;123.27;;;;;;;19.91;53.63;100565.59;5094518;28;20518;-79
2022/08/27 03:21:18;;;;;;;182.02;115.55;;;;;;;20.05;53.38;100574.09;5094124;28;20358;-79
2022/08/27 03:23:47;;;;;;;192.05;119.43;;;;;;;20.24;52.95;100585.13;5094024;28;20044;-80
2022/08/27 03:26:14;;;;;;;186.87;120.27;;;;;;;20.34;52.42;100567.19;5094097;28;20060;-80
2022/08/27 03:28:42;;;;;;;189.32;121.35;;;;;;;20.51;52.38;100574.72;5075995;28;20105;-79
2022/08/27 03:31:19;;;;;;;177.13;119.07;;;;;;;20.72;51.67;100575.97;5094087;28;20151;-79
2022/08/27 03:33:46;;;;;;;171.80;108.60;;;;;;;21.31;50.63;100575.16;5094228;28;20055;-79
2022/08/27 03:36:13;;;;;;;179.85;118.93;;;;;;;21.82;48.92;100565.66;5094214;28;20526;-79
2022/08/27 03:38:41;;;;;;;182.98;119.82;;;;;;;21.73;48.94;100561.50;5093855;28;20059;-79
2022/08/27 03:41:08;;;;;;;169.23;104.32;;;;;;;21.84;48.53;100547.88;5093595;28;20461;-81
2022/08/27 03:43:35;;;;;;;174.05;113.50;;;;;;;21.97;47.87;100535.91;5094021;28;20083;-80
2022/08/27 03:46:03;;;;;;;168.77;110.05;;;;;;;22.07;47.98;100563.97;5093929;28;20059;-80
2022/08/27 03:48:30;;;;;;;175.35;116.00;;;;;;;21.90;48.36;100579.59;5093836;28;20079;-80
2022/08/27 03:50:58;;;;;;;183.90;113.72;;;;;;;21.97;48.26;100599.75;5094114;28;20052;-81
2022/08/27 03:53:25;;;;;;;169.70;109.68;;;;;;;22.04;48.19;100587.13;5076262;28;20116;-80
2022/08/27 03:55:52;;;;;;;160.45;106.32;;;;;;;22.13;48.12;100580.63;5093954;28;20526;-80
2022/08/27 03:58:19;;;;;;;160.48;103.30;;;;;;;22.21;47.52;100582.09;5093290;28;20151;-81
2022/08/27 04:00:47;;;;;;;162.77;102.95;;;;;;;22.19;47.95;100580.44;5093831;28;20056;-80
2022/08/27 04:03:14;;;;;;;166.77;106.55;;;;;;;22.33;47.66;100570.22;5090259;28;20086;-79
2022/08/27 04:05:42;;;;;;;171.45;113.53;;;;;;;22.65;47.08;100581.53;5093215;28;20054;-80
2022/08/27 04:08:12;;;;;;;183.38;120.30;;;;;;;22.79;46.06;100546.44;5093407;28;20419;-78
2022/08/27 04:10:40;;;;;;;173.82;114.22;;;;;;;23.12;45.75;100581.63;5093478;28;20048;-79
2022/08/27 04:13:07;;;;;;;167.95;112.78;;;;;;;23.23;45.55;100582.13;5092972;28;20101;-81
2022/08/27 04:15:34;;;;;;;174.45;114.53;;;;;;;23.29;45.42;100578.34;5104064;28;20130;-82
2022/08/27 04:18:06;;;;;;;176.75;112.78;;;;;;;23.40;45.18;100591.25;5101554;28;20142;-78
2022/08/27 04:20:33;;;;;;;165.23;111.28;;;;;;;23.54;45.06;100590.75;5105022;28;20544;-79
2022/08/27 04:23:03;;;;;;;173.75;115.28;;;;;;;23.45;44.71;100570.66;5085591;28;20113;-83
2022/08/27 04:25:31;;;;;;;176.10;119.67;;;;;;;23.72;44.67;100595.34;5093778;28;20454;-79
2022/08/27 04:27:58;;;;;;;176.65;117.95;;;;;;;23.73;44.68;100578.44;5093533;28;20146;-82
2022/08/27 04:30:25;;;;;;;175.25;120.38;;;;;;;23.84;44.60;100600.22;5093685;28;20051;-80
2022/08/27 04:32:53;;;;;;;177.85;117.85;;;;;;;23.91;44.61;100601.72;5074829;28;20139;-79
2022/08/27 04:35:20;;;;;;;170.35;118.05;;;;;;;23.97;44.27;100602.41;5092263;28;20526;-78
2022/08/27 04:37:47;;;;;;;183.80;119.65;;;;;;;23.90;44.08;100594.66;5093486;28;20070;-79
2022/08/27 04:40:14;;;;;;;174.52;119.63;;;;;;;23.87;44.18;100592.09;5092130;28;20052;-77
2022/08/27 04:42:43;;;;;;;180.88;122.57;;;;;;;23.95;44.62;100590.94;5093038;28;20098;-80
2022/08/27 04:45:10;;;;;;;192.30;127.45;;;;;;;23.73;44.47;100550.91;5094252;28;20403;-80
2022/08/27 04:47:37;;;;;;;207.45;135.73;;;;;;;24.04;44.20;100601.22;5092732;28;20040;-79
2022/08/27 04:50:05;;;;;;;200.88;136.25;;;;;;;24.03;43.99;100589.69;5082665;28;20056;-81
2022/08/27 04:52:33;;;;;;;203.77;141.48;;;;;;;24.22;43.47;100602.25;5092071;28;20151;-79
2022/08/27 04:55:07;;;;;;;222.27;146.20;;;;;;;24.09;43.26;100561.88;5093108;28;20051;-77
2022/08/27 04:57:36;;;;;;;220.73;147.65;;;;;;;24.40;43.11;100601.50;5074167;28;20064;-78
2022/08/27 05:00:06;;;;;;;236.35;155.10;;;;;;;24.46;42.95;100585.22;5093567;28;20048;-79
2022/08/27 05:02:33;;;;;;;234.50;159.75;;;;;;;24.48;42.97;100591.41;5092972;28;20047;-77
2022/08/27 05:05:00;;;;;;;233.43;158.05;;;;;;;24.40;42.82;100584.63;5093300;28;20047;-79
2022/08/27 05:07:28;;;;;;;228.50;152.95;;;;;;;24.57;42.55;100560.75;5093584;28;20058;-79
2022/08/27 05:09:56;;;;;;;228.50;155.02;;;;;;;24.87;42.50;100587.06;5093851;28;20052;-78
2022/08/27 05:12:28;;;;;;;235.88;156.10;;;;;;;24.80;42.26;100597.16;5103072;28;20082;-82
2022/08/27 05:14:55;;;;;;;227.13;151.50;;;;;;;24.77;42.22;100585.72;5083999;28;20047;-79
2022/08/27 05:17:22;;;;;;;234.27;156.20;;;;;;;24.83;42.03;100578.31;5101571;28;20155;-79
2022/08/27 05:19:49;;;;;;;235.77;156.60;;;;;;;24.81;42.06;100593.53;5094503;28;20052;-80
2022/08/27 05:22:16;;;;;;;227.43;155.88;;;;;;;24.78;42.58;100590.13;5087166;28;20056;-77
2022/08/27 05:24:43;;;;;;;232.75;155.20;;;;;;;24.83;42.27;100588.13;5080624;28;20062;-80
2022/08/27 05:27:16;;;;;;;234.30;156.05;;;;;;;24.81;42.26;100584.66;5092711;28;20055;-81
2022/08/27 05:29:43;;;;;;;226.88;152.02;;;;;;;25.09;41.89;100593.16;5074568;28;20573;-77
2022/08/27 05:32:10;;;;;;;238.02;153.73;;;;;;;25.10;41.69;100553.94;5092695;28;20052;-82
2022/08/27 05:34:37;;;;;;;242.65;154.60;;;;;;;25.46;41.44;100594.16;5075989;28;20074;-78
2022/08/27 05:37:05;;;;;;;228.93;151.07;;;;;;;25.58;41.24;100591.88;5093697;28;20139;-80
2022/08/27 05:39:32;;;;;;;232.80;155.45;;;;;;;25.63;40.88;100568.44;5093087;28;20048;-78
2022/08/27 05:41:59;;;;;;;230.45;153.65;;;;;;;25.95;40.78;100596.34;5092007;28;20476;-79
2022/08/27 05:44:26;;;;;;;237.43;154.00;;;;;;;26.26;40.07;100592.13;5074125;28;20109;-81
2022/08/27 05:47:09;;;;;;;231.18;151.00;;;;;;;26.57;39.44;100588.78;5093982;28;20052;-80
2022/08/27 05:49:36;;;;;;;228.35;150.68;;;;;;;26.72;39.10;100588.00;5077987;28;20059;-81
2022/08/27 05:52:07;;;;;;;226.98;147.07;;;;;;;26.78;39.15;100584.13;5095736;28;20056;-79
2022/08/27 05:54:35;;;;;;;221.63;149.57;;;;;;;26.98;38.73;100587.56;5095907;28;20067;-78
2022/08/27 05:57:02;;;;;;;213.07;145.70;;;;;;;27.02;38.66;100578.38;5095763;28;20051;-78
2022/08/27 06:02:15;;;;;;;203.98;140.75;;;;;;;27.17;38.68;100583.81;5075377;28;20084;-78
2022/08/27 06:04:42;;;;;;;202.30;136.38;;;;;;;27.20;38.35;100571.19;5075314;28;20083;-79
2022/08/27 06:07:09;;;;;;;200.73;137.98;;;;;;;27.16;37.41;100551.69;5075346;28;20106;-79
2022/08/27 06:09:37;;;;;;;195.90;135.45;;;;;;;27.42;37.39;100571.75;5074896;28;20139;-79
2022/08/27 06:12:05;;;;;;;200.93;135.10;;;;;;;27.53;37.26;100563.09;5074590;28;20074;-79
2022/08/27 06:14:34;;;;;;;201.05;137.63;;;;;;;27.73;36.98;100586.13;5074054;28;20052;-78
2022/08/27 06:17:02;;;;;;;191.00;135.20;;;;;;;27.82;37.23;100580.25;5074999;28;20056;-78
2022/08/27 06:19:29;;;;;;;178.77;130.55;;;;;;;27.87;36.12;100575.50;5074514;28;20453;-79
2022/08/27 06:21:58;;;;;;;181.73;125.18;;;;;;;27.96;35.98;100563.34;5074569;28;20423;-79
2022/08/27 06:24:41;;;;;;;181.75;127.60;;;;;;;28.20;35.13;100574.50;5074710;28;20048;-78
2022/08/27 06:27:11;;;;;;;174.70;124.05;;;;;;;28.30;35.13;100574.81;5075020;28;20168;-77
2022/08/27 06:29:39;;;;;;;180.98;122.70;;;;;;;28.42;34.40;100567.84;5074656;28;20063;-78
2022/08/27 06:32:08;;;;;;;178.10;123.88;;;;;;;28.46;34.79;100572.06;5075048;28;20057;-78
2022/08/27 06:34:36;;;;;;;172.90;122.53;;;;;;;28.29;34.61;100530.13;5074832;28;20532;-79
2022/08/27 06:37:04;;;;;;;170.73;120.65;;;;;;;28.46;34.81;100570.25;5075945;28;20049;-79
2022/08/27 06:39:31;;;;;;;170.23;119.53;;;;;;;28.44;34.36;100569.50;5075938;28;20052;-78
2022/08/27 06:41:58;;;;;;;160.65;114.80;;;;;;;28.44;34.21;100553.38;5074649;28;20063;-78
2022/08/27 06:44:31;;;;;;;162.02;114.20;;;;;;;28.50;34.34;100562.88;5074881;28;20056;-79
2022/08/27 06:46:58;;;;;;;166.52;114.78;;;;;;;28.54;33.60;100567.13;5074864;28;20052;-78
2022/08/27 06:49:26;;;;;;;158.40;111.00;;;;;;;28.61;33.76;100568.50;5074383;28;20048;-78
2022/08/27 06:51:53;;;;;;;165.88;118.18;;;;;;;28.70;34.06;100562.56;5057127;28;20049;-79
2022/08/27 06:54:20;;;;;;;167.30;120.85;;;;;;;28.77;34.15;100555.84;5074079;28;20147;-79
2022/08/27 06:56:48;;;;;;;174.70;121.55;;;;;;;28.84;34.25;100550.09;5074353;28;20056;-79
2022/08/27 06:59:19;;;;;;;172.15;120.97;;;;;;;28.94;33.59;100552.09;5073905;28;20094;-79
2022/08/27 07:01:49;;;;;;;165.55;118.63;;;;;;;29.09;33.46;100555.69;5074340;28;20067;-77
2022/08/27 07:04:21;;;;;;;178.75;126.82;;;;;;;29.22;33.41;100545.03;5074032;28;20106;-80
2022/08/27 07:06:53;;;;;;;182.13;125.50;;;;;;;29.29;33.63;100549.03;5074273;28;20048;-77
2022/08/27 07:09:23;;;;;;;166.75;121.30;;;;;;;29.25;33.38;100558.25;5073821;28;20049;-78
2022/08/27 07:11:50;;;;;;;170.35;118.35;;;;;;;29.34;33.41;100559.50;5073824;28;20067;-78
2022/08/27 07:14:17;;;;;;;155.70;108.10;;;;;;;29.41;33.29;100560.84;5073544;28;20386;-78
2022/08/27 07:16:44;;;;;;;139.15;100.43;;;;;;;29.51;32.89;100551.22;5073915;28;20102;-78
2022/08/27 07:19:14;;;;;;;133.95;93.45;;;;;;;29.38;31.93;100520.66;5073952;28;20054;-79
2022/08/27 07:21:42;;;;;;;120.75;84.45;;;;;;;29.53;32.08;100543.03;5073910;28;20084;-78
2022/08/27 07:24:11;;;;;;;101.43;73.63;;;;;;;29.53;31.45;100525.06;5073794;28;20044;-78
2022/08/27 07:26:41;;;;;;;106.03;74.78;;;;;;;29.54;31.02;100545.63;5056275;28;20148;-78
2022/08/27 07:29:11;;;;;;;95.28;68.03;;;;;;;29.50;30.96;100540.56;5073981;28;20508;-78
2022/08/27 07:31:38;;;;;;;88.18;63.72;;;;;;;29.60;30.44;100542.53;5073661;28;20060;-79
2022/08/27 07:34:06;;;;;;;87.05;62.75;;;;;;;29.71;30.34;100536.50;5073687;28;20135;-77
2022/08/27 07:36:34;;;;;;;86.28;64.00;;;;;;;29.71;30.52;100546.41;5072939;28;20052;-79
2022/08/27 07:39:02;;;;;;;82.77;62.23;;;;;;;29.50;30.81;100529.78;5073746;28;20059;-80
2022/08/27 07:41:30;;;;;;;89.70;65.70;;;;;;;29.50;31.00;100545.94;5073031;28;20770;-79
2022/08/27 07:46:46;;;;;;;80.57;61.05;;;;;;;29.51;30.62;100536.88;5073400;28;20348;-79
2022/08/27 07:49:17;;;;;;;87.03;61.40;;;;;;;29.64;30.70;100535.13;5073526;28;20083;-78
2022/08/27 07:51:45;;;;;;;85.57;62.25;;;;;;;29.82;30.45;100546.53;5073488;28;20555;-80
2022/08/27 07:54:13;;;;;;;88.28;64.80;;;;;;;29.83;30.55;100513.25;5056257;28;20087;-79
2022/08/27 07:56:40;;;;;;;78.50;57.65;;;;;;;30.04;30.18;100537.88;5073417;28;20126;-79
2022/08/27 07:59:08;;;;;;;84.53;62.45;;;;;;;30.07;30.46;100534.97;5077153;28;20555;-79
2022/08/27 08:01:35;;;;;;;83.75;62.72;;;;;;;30.25;30.31;100537.41;5092803;28;20086;-79
2022/08/27 08:04:02;;;;;;;83.03;61.25;;;;;;;30.35;30.46;100531.31;5093333;28;20060;-77
2022/08/27 08:06:29;;;;;;;77.13;60.53;;;;;;;30.40;29.55;100504.06;5092629;28;20350;-79
2022/08/27 08:08:58;;;;;;;89.85;62.55;;;;;;;30.83;29.32;100519.91;5091972;28;20056;-77
2022/08/27 08:11:25;;;;;;;87.13;64.72;;;;;;;30.96;29.40;100528.88;5074867;28;20135;-79
2022/08/27 08:13:52;;;;;;;73.88;57.70;;;;;;;31.13;28.80;100524.09;5092852;28;20056;-80
2022/08/27 08:16:23;;;;;;;68.00;53.05;;;;;;;31.15;28.60;100506.81;5093207;28;20056;-79
2022/08/27 08:18:58;;;;;;;64.68;49.95;;;;;;;31.32;27.74;100529.00;5081697;28;20516;-77
2022/08/27 08:21:26;;;;;;;69.72;54.13;;;;;;;31.26;27.94;100516.84;5076935;28;20131;-79
2022/08/27 08:23:53;;;;;;;75.53;55.75;;;;;;;31.36;27.93;100519.72;5080127;28;20083;-78
2022/08/27 08:26:21;;;;;;;76.35;54.60;;;;;;;31.46;27.87;100512.69;5081784;28;20052;-79
2022/08/27 08:28:48;;;;;;;70.70;53.75;;;;;;;31.65;27.43;100516.75;5083596;28;20058;-78
2022/08/27 08:31:15;;;;;;;69.47;53.65;;;;;;;31.61;27.21;100519.66;5084520;28;20056;-79
2022/08/27 08:33:43;;;;;;;76.80;52.30;;;;;;;31.54;27.46;100518.41;5092438;28;20056;-79
2022/08/27 08:36:12;;;;;;;76.63;51.55;;;;;;;31.53;26.95;100494.22;5092194;28;20393;-81
2022/08/27 08:38:40;;;;;;;63.70;48.75;;;;;;;31.50;26.67;100498.00;5092345;28;20047;-80
2022/08/27 08:41:39;;;;;;;59.28;44.75;;;;;;;31.61;26.37;100508.84;5092315;28;20055;-80
2022/08/27 08:44:25;;;;;;;60.58;45.58;;;;;;;31.73;25.85;100504.38;5092835;28;20110;-79
2022/08/27 08:46:58;;;;;;;55.65;40.35;;;;;;;31.72;25.58;100509.91;5092898;28;20059;-80
2022/08/27 08:49:31;;;;;;;54.20;36.72;;;;;;;31.68;25.09;100486.78;5092506;28;20062;-80
2022/08/27 08:52:13;;;;;;;42.72;32.00;;;;;;;31.88;24.60;100486.16;5089959;28;20060;-80
2022/08/27 08:55:06;;;;;;;40.78;28.17;;;;;;;31.99;23.89;100491.63;5072424;28;20056;-79
2022/08/27 08:57:42;;;;;;;37.58;26.23;;;;;;;32.05;23.49;100490.28;5072086;28;20078;-79
2022/08/27 09:00:12;;;;;;;30.63;22.38;;;;;;;31.97;23.07;100447.63;5072262;28;20060;-80
2022/08/27 09:02:49;;;;;;;35.70;25.52;;;;;;;32.19;23.64;100490.09;5081097;28;20040;-82
2022/08/27 09:05:17;;;;;;;37.95;27.27;;;;;;;32.22;23.34;100497.09;5080190;28;20052;-78
2022/08/27 09:07:56;;;;;;;25.52;18.00;;;;;;;32.22;22.87;100475.47;5085233;28;20048;-82
2022/08/27 09:10:55;;;;;;;26.92;18.00;;;;;;;32.27;22.75;100478.69;5083074;28;20529;-83
2022/08/27 09:13:57;;;;;;;25.95;19.08;;;;;;;31.93;23.37;100475.00;5089481;28;20144;-80
2022/08/27 09:16:24;;;;;;;24.20;18.15;;;;;;;31.89;23.31;100470.81;5028918;28;20155;-79
2022/08/27 09:18:52;;;;;;;18.00;13.57;;;;;;;31.89;22.49;100474.38;5084394;28;20535;-80
2022/08/27 09:21:25;;;;;;;21.60;14.75;;;;;;;31.96;22.83;100461.25;5066148;28;20159;-80
2022/08/27 09:24:04;;;;;;;19.00;12.75;;;;;;;32.08;22.81;100464.91;5067878;28;20079;-80
2022/08/27 09:26:35;;;;;;;20.10;12.68;;;;;;;32.20;22.19;100466.63;5085902;28;20050;-80
2022/08/27 09:29:15;;;;;;;22.00;14.23;;;;;;;32.18;22.66;100479.38;5087310;28;20115;-80
2022/08/27 09:31:52;;;;;;;21.08;15.95;;;;;;;32.25;22.35;100472.56;5086764;28;20080;-79
2022/08/27 09:34:21;;;;;;;20.15;15.10;;;;;;;32.44;22.20;100469.25;5097232;28;20048;-78
2022/08/27 09:37:06;;;;;;;22.27;13.63;;;;;;;32.70;21.74;100467.22;5096371;28;20458;-77
2022/08/27 09:39:48;;;;;;;19.88;14.38;;;;;;;32.92;21.88;100473.59;5099314;28;20058;-78
2022/08/27 09:42:25;;;;;;;17.75;13.52;;;;;;;33.04;21.74;100459.94;5097856;28;20055;-77
2022/08/27 09:44:53;;;;;;;20.90;14.30;;;;;;;33.28;21.40;100471.59;5097141;28;20060;-79
2022/08/27 09:47:20;;;;;;;25.13;15.57;;;;;;;33.27;21.13;100467.19;5096985;28;20074;-79
2022/08/27 09:49:47;;;;;;;20.38;15.10;;;;;;;33.21;21.38;100457.72;5096415;28;20056;-78
2022/08/27 09:52:35;;;;;;;28.73;17.02;;;;;;;33.18;21.99;100469.66;5095759;28;20067;-79
2022/08/27 09:55:05;;;;;;;24.65;16.13;;;;;;;33.28;21.25;100460.78;5078652;28;20569;-77
2022/08/27 09:57:37;;;;;;;;;;;;;;;33.23;22.07;100467.47;5097514;28;20048;-78
2022/08/27 10:00:12;;;;;;;22.50;15.75;;;;;;;33.08;21.65;100459.72;5099821;28;20022;-77
2022/08/27 10:02:52;;;;;;;22.15;16.15;;;;;;;33.22;21.39;100463.00;5099794;28;20083;-77
2022/08/27 10:05:28;;;;;;;20.73;14.43;;;;;;;33.44;21.34;100459.38;5081959;28;20109;-77
2022/08/27 10:08:34;;;;;;;18.70;14.27;;;;;;;33.45;21.16;100458.41;5096656;28;20059;-79
2022/08/27 10:11:06;;;;;;;35.38;22.60;;;;;;;33.62;21.14;100456.16;5097670;28;20058;-77
2022/08/27 10:13:45;;;;;;;22.58;15.23;;;;;;;33.70;20.86;100463.63;5095742;28;20048;-79
2022/08/27 10:16:35;;;;;;;20.17;14.85;;;;;;;33.53;20.58;100454.19;5095831;28;20052;-78
2022/08/27 10:19:15;;;;;;;20.80;15.02;;;;;;;33.33;20.83;100454.00;5094937;28;20172;-78
2022/08/27 10:21:49;;;;;;;24.40;15.50;;;;;;;33.48;20.63;100465.41;5095648;28;20052;-77
2022/08/27 10:24:32;;;;;;;23.25;16.77;;;;;;;33.62;20.70;100461.56;5077378;28;20079;-79
2022/08/27 10:27:02;;;;;;;23.95;16.45;;;;;;;33.51;20.79;100456.16;5083672;28;20060;-80
2022/08/27 10:30:09;;;;;;;21.45;14.32;;;;;;;33.50;20.83;100458.00;5074795;28;20048;-78
2022/08/27 10:32:44;;;;;;;20.42;14.18;;;;;;;33.60;20.96;100458.13;5056287;28;20052;-77
2022/08/27 10:35:25;;;;;;;22.98;15.63;;;;;;;33.50;21.09;100430.94;5074991;28;20067;-79
2022/08/27 10:38:28;;;;;;;23.00;15.48;;;;;;;33.38;20.90;100449.06;5084452;28;20048;-78
2022/08/27 10:41:14;;;;;;;21.30;16.80;;;;;;;33.15;21.17;100455.50;5007069;28;20139;-78
2022/08/27 10:44:12;;;;;;;24.05;15.57;;;;;;;33.16;21.39;100449.97;5074582;28;20177;-78
2022/08/27 10:47:11;;;;;;;19.63;14.20;;;;;;;33.10;21.08;100449.63;5074498;28;20064;-77
2022/08/27 10:50:02;;;;;;;22.85;15.02;;;;;;;33.22;20.98;100443.22;5074406;28;20110;-80
2022/08/27 10:52:49;;;;;;;20.55;14.43;;;;;;;33.36;20.58;100451.03;5074602;28;20540;-79
2022/08/27 10:55:23;;;;;;;23.50;14.93;;;;;;;33.39;20.54;100445.38;5073657;28;20078;-82
2022/08/27 10:58:03;;;;;;;24.50;15.15;;;;;;;33.43;20.80;100454.97;5093458;28;20083;-80
2022/08/27 11:00:55;;;;;;;36.42;15.10;;;;;;;33.41;20.60;100446.09;5094684;28;20090;-80
2022/08/27 11:03:27;;;;;;;22.85;14.20;;;;;;;33.27;20.35;100446.38;5094442;28;20052;-80
2022/08/27 11:06:13;;;;;;;18.90;13.60;;;;;;;33.13;20.53;100435.88;5094040;28;20052;-80
2022/08/27 11:08:48;;;;;;;19.17;14.32;;;;;;;32.97;20.62;100444.31;5094161;28;20052;-79
2022/08/27 11:11:40;;;;;;;21.25;13.93;;;;;;;32.87;20.62;100441.53;5094254;28;20059;-80
2022/08/27 11:14:46;;;;;;;20.95;13.75;;;;;;;32.93;20.85;100432.88;5075773;28;20080;-78
2022/08/27 11:17:24;;;;;;;18.95;13.77;;;;;;;33.03;20.90;100446.53;5094180;28;20052;-80
2022/08/27 11:19:58;;;;;;;19.65;13.80;;;;;;;32.59;20.56;100383.38;5093778;28;20054;-79
2022/08/27 11:22:59;;;;;;;23.05;15.57;;;;;;;32.96;20.68;100434.50;5093975;28;20048;-80
2022/08/27 11:25:34;;;;;;;23.02;14.65;;;;;;;32.75;20.46;100443.34;5094116;28;20175;-79
2022/08/27 11:28:04;;;;;;;20.40;14.63;;;;;;;32.64;20.73;100438.81;5093174;28;20082;-79